createdAt,value
2022-12-04T00:00:34.730Z,19
2022-12-04T00:02:38.005Z,20
2022-12-04T00:03:58.978Z,20
2022-12-04T00:05:01.391Z,20
2022-12-04T00:06:24.132Z,20
2022-12-04T00:07:31.293Z,20
2022-12-04T00:08:33.931Z,18
2022-12-04T00:09:36.474Z,18
2022-12-04T00:10:39.022Z,19
2022-12-04T00:11:47.676Z,18
2022-12-04T00:13:13.372Z,17
2022-12-04T00:14:20.636Z,19
2022-12-04T00:16:58.470Z,17
2022-12-04T00:18:05.222Z,18
2022-12-04T00:19:07.691Z,18
2022-12-04T00:20:10.254Z,19
2022-12-04T00:21:12.808Z,18
2022-12-04T00:22:15.384Z,18
2022-12-04T00:23:17.973Z,19
2022-12-04T00:24:20.625Z,17
2022-12-04T00:25:23.196Z,17
2022-12-04T00:26:30.279Z,17
2022-12-04T00:27:52.587Z,17
2022-12-04T00:29:35.084Z,18
2022-12-04T00:30:36.874Z,18
2022-12-04T00:31:49.474Z,19
2022-12-04T00:32:51.804Z,18
2022-12-04T00:33:54.329Z,19
2022-12-04T00:35:06.890Z,18
2022-12-04T00:36:59.516Z,17
2022-12-04T00:38:11.241Z,17
2022-12-04T00:39:13.256Z,19
2022-12-04T00:40:15.812Z,19
2022-12-04T00:41:28.353Z,19
2022-12-04T00:42:40.414Z,19
2022-12-04T00:43:42.525Z,18
2022-12-04T00:44:45.698Z,18
2022-12-04T00:45:58.440Z,18
2022-12-04T00:47:00.785Z,17
2022-12-04T00:48:03.322Z,17
2022-12-04T00:49:05.887Z,17
2022-12-04T00:50:08.455Z,17
2022-12-04T00:51:11.039Z,16
2022-12-04T00:52:13.587Z,17
2022-12-04T00:53:26.195Z,17
2022-12-04T00:54:28.422Z,16
2022-12-04T00:55:31.044Z,17
2022-12-04T00:56:33.623Z,16
2022-12-04T00:57:36.153Z,16
2022-12-04T00:58:38.749Z,17
2022-12-04T00:59:41.299Z,17
2022-12-04T01:00:43.933Z,17
2022-12-04T01:01:46.703Z,17
2022-12-04T01:02:49.363Z,17
2022-12-04T01:03:52.561Z,17
2022-12-04T01:04:55.127Z,17
2022-12-04T01:05:57.709Z,18
2022-12-04T01:07:05.443Z,19
2022-12-04T01:08:07.995Z,19
2022-12-04T01:09:10.754Z,19
2022-12-04T01:10:13.300Z,18
2022-12-04T01:11:15.800Z,17
2022-12-04T01:12:21.345Z,18
2022-12-04T01:13:23.786Z,17
2022-12-04T01:14:26.262Z,16
2022-12-04T01:15:28.794Z,14
2022-12-04T01:16:31.445Z,16
2022-12-04T01:17:34.237Z,17
2022-12-04T01:18:36.793Z,17
2022-12-04T01:19:49.357Z,17
2022-12-04T01:20:53.021Z,16
2022-12-04T01:21:55.472Z,18
2022-12-04T01:22:58.006Z,18
2022-12-04T01:24:00.470Z,18
2022-12-04T01:25:03.526Z,19
2022-12-04T01:26:06.095Z,19
2022-12-04T01:27:08.509Z,17
2022-12-04T01:28:11.187Z,17
2022-12-04T01:29:13.856Z,17
2022-12-04T01:30:16.458Z,15
2022-12-04T01:31:19.244Z,17
2022-12-04T01:32:22.015Z,17
2022-12-04T01:33:24.584Z,17
2022-12-04T01:34:27.219Z,17
2022-12-04T01:35:33.538Z,17
2022-12-04T01:36:35.947Z,17
2022-12-04T01:37:38.545Z,17
2022-12-04T01:38:41.144Z,17
2022-12-04T01:39:43.741Z,17
2022-12-04T01:40:46.370Z,17
2022-12-04T01:41:48.964Z,18
2022-12-04T01:42:52.161Z,17
2022-12-04T01:43:56.264Z,17
2022-12-04T01:44:58.799Z,17
2022-12-04T01:46:01.550Z,17
2022-12-04T01:47:04.369Z,18
2022-12-04T01:48:06.948Z,18
2022-12-04T01:49:09.516Z,17
2022-12-04T01:50:12.096Z,17
2022-12-04T01:51:14.707Z,18
2022-12-04T01:52:17.266Z,18
2022-12-04T01:53:19.908Z,19
2022-12-04T01:54:26.010Z,19
2022-12-04T01:55:28.385Z,19
2022-12-04T01:56:30.954Z,19
2022-12-04T01:57:33.565Z,18
2022-12-04T01:58:36.147Z,17
2022-12-04T01:59:39.639Z,17
2022-12-04T02:00:42.344Z,17
2022-12-04T02:01:45.231Z,17
2022-12-04T02:02:48.089Z,17
2022-12-04T02:03:50.844Z,17
2022-12-04T02:04:53.476Z,17
2022-12-04T02:05:56.044Z,17
2022-12-04T02:06:58.651Z,17
2022-12-04T02:08:01.413Z,17
2022-12-04T02:09:04.259Z,17
2022-12-04T02:10:06.822Z,18
2022-12-04T02:11:10.037Z,18
2022-12-04T02:12:12.598Z,19
2022-12-04T02:13:15.207Z,22
2022-12-04T02:14:17.820Z,22
2022-12-04T02:15:20.442Z,21
2022-12-04T02:16:23.201Z,19
2022-12-04T02:17:26.031Z,20
2022-12-04T02:18:28.643Z,18
2022-12-04T02:19:31.269Z,19
2022-12-04T02:20:33.871Z,20
2022-12-04T02:21:36.765Z,19
2022-12-04T02:22:39.376Z,20
2022-12-04T02:23:41.935Z,20
2022-12-04T02:24:50.260Z,20
2022-12-04T02:25:52.800Z,19
2022-12-04T02:26:55.386Z,20
2022-12-04T02:27:57.980Z,19
2022-12-04T02:29:00.558Z,19
2022-12-04T02:30:03.176Z,19
2022-12-04T02:31:05.966Z,19
2022-12-04T02:32:08.894Z,19
2022-12-04T02:33:11.522Z,19
2022-12-04T02:34:14.121Z,19
2022-12-04T02:35:16.733Z,17
2022-12-04T02:36:19.350Z,19
2022-12-04T02:37:21.940Z,19
2022-12-04T02:38:24.514Z,19
2022-12-04T02:39:27.128Z,19
2022-12-04T02:40:29.787Z,19
2022-12-04T02:41:32.407Z,19
2022-12-04T02:42:35.064Z,19
2022-12-04T02:43:37.651Z,19
2022-12-04T02:44:40.243Z,20
2022-12-04T02:45:42.936Z,19
2022-12-04T02:46:45.970Z,17
2022-12-04T02:47:48.690Z,18
2022-12-04T02:48:51.514Z,17
2022-12-04T02:49:54.810Z,19
2022-12-04T02:50:57.956Z,17
2022-12-04T02:52:00.531Z,19
2022-12-04T02:53:03.153Z,19
2022-12-04T02:54:05.751Z,20
2022-12-04T02:55:09.062Z,20
2022-12-04T02:56:11.624Z,20
2022-12-04T02:57:14.309Z,21
2022-12-04T02:58:16.902Z,20
2022-12-04T02:59:19.542Z,19
2022-12-04T03:00:22.171Z,19
2022-12-04T03:01:24.919Z,19
2022-12-04T03:02:27.848Z,18
2022-12-04T03:03:30.733Z,17
2022-12-04T03:04:33.345Z,19
2022-12-04T03:05:35.965Z,18
2022-12-04T03:06:38.607Z,19
2022-12-04T03:07:41.430Z,19
2022-12-04T03:08:44.142Z,19
2022-12-04T03:09:46.808Z,18
2022-12-04T03:10:49.373Z,19
2022-12-04T03:11:52.015Z,19
2022-12-04T03:12:54.638Z,19
2022-12-04T03:13:57.180Z,18
2022-12-04T03:14:59.782Z,18
2022-12-04T03:16:02.357Z,19
2022-12-04T03:17:05.217Z,18
2022-12-04T03:18:08.035Z,18
2022-12-04T03:19:10.690Z,19
2022-12-04T03:20:13.316Z,19
2022-12-04T03:21:15.924Z,17
2022-12-04T03:22:18.538Z,18
2022-12-04T03:23:21.136Z,19
2022-12-04T03:24:23.787Z,17
2022-12-04T03:25:26.395Z,18
2022-12-04T03:26:29.588Z,17
2022-12-04T03:27:32.195Z,17
2022-12-04T03:28:34.819Z,17
2022-12-04T03:29:37.991Z,18
2022-12-04T03:30:40.658Z,17
2022-12-04T03:31:43.416Z,18
2022-12-04T03:32:46.011Z,19
2022-12-04T03:33:48.714Z,18
2022-12-04T03:34:51.395Z,17
2022-12-04T03:35:54.085Z,17
2022-12-04T03:36:56.702Z,17
2022-12-04T03:37:59.904Z,17
2022-12-04T03:39:02.506Z,18
2022-12-04T03:40:05.689Z,17
2022-12-04T03:41:08.293Z,17
2022-12-04T03:42:10.845Z,19
2022-12-04T03:43:14.037Z,17
2022-12-04T03:44:16.612Z,17
2022-12-04T03:45:19.197Z,18
2022-12-04T03:46:21.945Z,19
2022-12-04T03:47:24.648Z,17
2022-12-04T03:48:27.289Z,19
2022-12-04T03:49:29.935Z,18
2022-12-04T03:50:32.609Z,17
2022-12-04T03:51:35.236Z,18
2022-12-04T03:52:37.863Z,17
2022-12-04T03:53:40.442Z,17
2022-12-04T03:54:43.092Z,18
2022-12-04T03:55:45.677Z,19
2022-12-04T03:56:48.287Z,17
2022-12-04T03:57:50.906Z,17
2022-12-04T03:58:53.495Z,19
2022-12-04T03:59:56.675Z,18
2022-12-04T04:01:00.183Z,18
2022-12-04T04:02:03.129Z,18
2022-12-04T04:03:06.317Z,17
2022-12-04T04:04:09.067Z,18
2022-12-04T04:05:11.693Z,18
2022-12-04T04:06:14.339Z,17
2022-12-04T04:07:16.984Z,17
2022-12-04T04:08:19.784Z,17
2022-12-04T04:09:22.528Z,17
2022-12-04T04:10:25.118Z,17
2022-12-04T04:11:27.732Z,19
2022-12-04T04:12:30.310Z,19
2022-12-04T04:13:32.957Z,19
2022-12-04T04:14:35.597Z,17
2022-12-04T04:15:38.309Z,18
2022-12-04T04:16:41.121Z,17
2022-12-04T04:17:43.715Z,17
2022-12-04T04:18:46.355Z,17
2022-12-04T04:19:48.897Z,17
2022-12-04T04:20:51.557Z,17
2022-12-04T04:21:54.255Z,17
2022-12-04T04:22:56.844Z,17
2022-12-04T04:23:59.456Z,18
2022-12-04T04:25:02.058Z,17
2022-12-04T04:26:04.679Z,18
2022-12-04T04:27:07.298Z,19
2022-12-04T04:28:09.881Z,18
2022-12-04T04:29:12.453Z,17
2022-12-04T04:30:15.077Z,17
2022-12-04T04:31:17.858Z,17
2022-12-04T04:32:20.611Z,17
2022-12-04T04:33:23.208Z,17
2022-12-04T04:34:25.804Z,19
2022-12-04T04:35:28.625Z,19
2022-12-04T04:36:31.296Z,19
2022-12-04T04:37:33.957Z,19
2022-12-04T04:38:36.568Z,18
2022-12-04T04:39:39.188Z,19
2022-12-04T04:40:41.807Z,19
2022-12-04T04:41:44.439Z,19
2022-12-04T04:42:47.051Z,19
2022-12-04T04:43:49.656Z,19
2022-12-04T04:44:52.270Z,19
2022-12-04T04:45:54.984Z,18
2022-12-04T04:46:57.914Z,19
2022-12-04T04:48:00.667Z,19
2022-12-04T04:49:03.282Z,17
2022-12-04T04:50:05.858Z,18
2022-12-04T04:51:08.510Z,18
2022-12-04T04:52:12.700Z,18
2022-12-04T04:53:15.238Z,19
2022-12-04T04:54:17.806Z,18
2022-12-04T04:55:20.427Z,18
2022-12-04T04:56:23.039Z,19
2022-12-04T04:57:25.650Z,19
2022-12-04T04:58:28.289Z,17
2022-12-04T04:59:30.920Z,17
2022-12-04T05:00:33.565Z,19
2022-12-04T05:01:36.287Z,19
2022-12-04T05:02:49.135Z,17
2022-12-04T05:03:51.501Z,17
2022-12-04T05:04:54.080Z,17
2022-12-04T05:05:56.964Z,17
2022-12-04T05:06:59.536Z,19
2022-12-04T05:08:02.337Z,17
2022-12-04T05:09:05.186Z,18
2022-12-04T05:10:07.788Z,17
2022-12-04T05:11:10.413Z,18
2022-12-04T05:12:13.050Z,18
2022-12-04T05:13:15.668Z,17
2022-12-04T05:14:18.288Z,19
2022-12-04T05:15:20.879Z,19
2022-12-04T05:16:23.937Z,18
2022-12-04T05:17:26.809Z,17
2022-12-04T05:18:29.476Z,19
2022-12-04T05:19:32.036Z,19
2022-12-04T05:20:34.624Z,17
2022-12-04T05:21:37.213Z,17
2022-12-04T05:22:39.831Z,17
2022-12-04T05:23:42.542Z,17
2022-12-04T05:24:45.216Z,19
2022-12-04T05:25:47.817Z,19
2022-12-04T05:26:50.435Z,18
2022-12-04T05:27:53.051Z,19
2022-12-04T05:28:55.709Z,19
2022-12-04T05:29:59.249Z,17
2022-12-04T05:31:02.266Z,18
2022-12-04T05:32:04.947Z,17
2022-12-04T05:33:07.701Z,17
2022-12-04T05:34:11.899Z,17
2022-12-04T05:35:14.456Z,17
2022-12-04T05:36:17.089Z,17
2022-12-04T05:37:19.712Z,17
2022-12-04T05:38:22.320Z,18
2022-12-04T05:39:25.262Z,18
2022-12-04T05:40:28.902Z,17
2022-12-04T05:41:31.537Z,17
2022-12-04T05:42:34.122Z,17
2022-12-04T05:43:36.680Z,17
2022-12-04T05:44:39.265Z,18
2022-12-04T05:45:42.481Z,17
2022-12-04T05:46:45.204Z,18
2022-12-04T05:47:48.033Z,17
2022-12-04T05:48:50.638Z,17
2022-12-04T05:49:54.910Z,18
2022-12-04T05:51:02.025Z,18
2022-12-04T05:52:05.949Z,19
2022-12-04T05:53:08.456Z,18
2022-12-04T05:54:11.065Z,19
2022-12-04T05:55:13.722Z,18
2022-12-04T05:56:16.363Z,19
2022-12-04T05:57:19.228Z,17
2022-12-04T05:58:21.844Z,18
2022-12-04T05:59:24.480Z,18
2022-12-04T06:00:27.121Z,17
2022-12-04T06:01:29.727Z,18
2022-12-04T06:02:32.664Z,17
2022-12-04T06:03:35.756Z,19
2022-12-04T06:04:38.595Z,19
2022-12-04T06:05:41.200Z,18
2022-12-04T06:06:43.847Z,18
2022-12-04T06:07:46.614Z,19
2022-12-04T06:08:49.445Z,19
2022-12-04T06:09:52.082Z,18
2022-12-04T06:10:54.860Z,19
2022-12-04T06:11:57.749Z,19
2022-12-04T06:13:00.377Z,18
2022-12-04T06:14:03.029Z,17
2022-12-04T06:15:05.660Z,18
2022-12-04T06:16:08.337Z,18
2022-12-04T06:17:11.055Z,18
2022-12-04T06:18:13.706Z,17
2022-12-04T06:19:16.317Z,18
2022-12-04T06:20:22.539Z,17
2022-12-04T06:21:25.273Z,18
2022-12-04T06:22:27.893Z,17
2022-12-04T06:23:30.473Z,17
2022-12-04T06:24:33.091Z,18
2022-12-04T06:25:35.733Z,17
2022-12-04T06:26:57.791Z,19
2022-12-04T06:28:00.176Z,18
2022-12-04T06:29:02.719Z,17
2022-12-04T06:30:06.333Z,17
2022-12-04T06:31:09.040Z,19
2022-12-04T06:32:21.079Z,19
2022-12-04T06:33:24.570Z,18
2022-12-04T06:34:27.151Z,19
2022-12-04T06:35:29.705Z,19
2022-12-04T06:36:32.291Z,19
2022-12-04T06:37:34.899Z,19
2022-12-04T06:38:37.485Z,19
2022-12-04T06:39:40.161Z,17
2022-12-04T06:40:42.805Z,17
2022-12-04T06:41:45.445Z,17
2022-12-04T06:42:48.092Z,19
2022-12-04T06:43:50.753Z,21
2022-12-04T06:44:53.405Z,23
2022-12-04T06:45:56.176Z,22
2022-12-04T06:47:01.391Z,20
2022-12-04T06:48:03.779Z,20
2022-12-04T06:49:06.403Z,19
2022-12-04T06:50:09.003Z,19
2022-12-04T06:51:11.648Z,18
2022-12-04T06:52:14.284Z,20
2022-12-04T06:53:16.896Z,20
2022-12-04T06:54:19.500Z,19
2022-12-04T06:55:22.117Z,18
2022-12-04T06:56:24.715Z,19
2022-12-04T06:57:27.368Z,19
2022-12-04T06:58:30.016Z,17
2022-12-04T06:59:32.906Z,19
2022-12-04T07:00:35.767Z,19
2022-12-04T07:01:38.839Z,19
2022-12-04T07:02:42.650Z,20
2022-12-04T07:03:51.722Z,19
2022-12-04T07:04:54.307Z,19
2022-12-04T07:05:56.882Z,20
2022-12-04T07:06:59.423Z,21
2022-12-04T07:08:02.063Z,20
2022-12-04T07:09:04.810Z,20
2022-12-04T07:10:07.468Z,20
2022-12-04T07:11:10.079Z,20
2022-12-04T07:12:12.713Z,20
2022-12-04T07:13:15.335Z,20
2022-12-04T07:14:17.964Z,21
2022-12-04T07:15:20.860Z,22
2022-12-04T07:16:23.545Z,22
2022-12-04T07:17:26.396Z,24
2022-12-04T07:18:28.994Z,23
2022-12-04T07:19:31.648Z,23
2022-12-04T07:20:36.810Z,21
2022-12-04T07:21:39.345Z,21
2022-12-04T07:22:41.958Z,22
2022-12-04T07:23:44.606Z,21
2022-12-04T07:24:47.352Z,20
2022-12-04T07:25:49.909Z,20
2022-12-04T07:26:52.550Z,20
2022-12-04T07:27:55.450Z,20
2022-12-04T07:28:58.125Z,19
2022-12-04T07:30:00.785Z,19
2022-12-04T07:31:03.447Z,21
2022-12-04T07:32:06.201Z,33
2022-12-04T07:33:09.238Z,39
2022-12-04T07:34:11.852Z,36
2022-12-04T07:35:14.480Z,29
2022-12-04T07:36:17.691Z,26
2022-12-04T07:37:20.284Z,24
2022-12-04T07:38:23.157Z,23
2022-12-04T07:39:25.966Z,22
2022-12-04T07:40:28.602Z,24
2022-12-04T07:41:31.216Z,27
2022-12-04T07:42:33.839Z,25
2022-12-04T07:43:36.510Z,30
2022-12-04T07:44:39.153Z,37
2022-12-04T07:45:41.879Z,36
2022-12-04T07:46:44.850Z,32
2022-12-04T07:47:47.469Z,29
2022-12-04T07:48:50.082Z,27
2022-12-04T07:49:52.979Z,27
2022-12-04T07:50:56.882Z,27
2022-12-04T07:51:59.520Z,26
2022-12-04T07:53:02.145Z,26
2022-12-04T07:54:04.786Z,26
2022-12-04T07:55:10.937Z,26
2022-12-04T07:56:13.319Z,26
2022-12-04T07:57:15.898Z,23
2022-12-04T07:58:18.617Z,23
2022-12-04T07:59:21.291Z,21
2022-12-04T08:00:23.876Z,20
2022-12-04T08:01:26.688Z,20
2022-12-04T08:02:29.679Z,23
2022-12-04T08:03:32.277Z,23
2022-12-04T08:04:35.019Z,24
2022-12-04T08:05:37.887Z,23
2022-12-04T08:06:40.488Z,21
2022-12-04T08:07:43.191Z,23
2022-12-04T08:08:46.001Z,22
2022-12-04T08:09:50.156Z,22
2022-12-04T08:10:52.590Z,22
2022-12-04T08:11:55.790Z,23
2022-12-04T08:12:58.348Z,23
2022-12-04T08:14:00.935Z,23
2022-12-04T08:15:03.563Z,23
2022-12-04T08:16:06.201Z,23
2022-12-04T08:17:09.017Z,24
2022-12-04T08:18:11.913Z,26
2022-12-04T08:19:14.537Z,27
2022-12-04T08:20:17.191Z,27
2022-12-04T08:21:19.815Z,27
2022-12-04T08:22:25.612Z,27
2022-12-04T08:23:28.006Z,28
2022-12-04T08:24:30.589Z,27
2022-12-04T08:25:33.216Z,29
2022-12-04T08:26:35.811Z,35
2022-12-04T08:27:46.011Z,38
2022-12-04T08:28:49.969Z,36
2022-12-04T08:29:52.741Z,33
2022-12-04T08:30:56.356Z,32
2022-12-04T08:31:59.216Z,28
2022-12-04T08:33:01.878Z,28
2022-12-04T08:34:04.587Z,30
2022-12-04T08:35:07.216Z,30
2022-12-04T08:36:09.893Z,29
2022-12-04T08:37:12.578Z,26
2022-12-04T08:38:15.239Z,25
2022-12-04T08:39:18.000Z,24
2022-12-04T08:40:20.644Z,24
2022-12-04T08:41:24.564Z,24
2022-12-04T08:42:28.130Z,24
2022-12-04T08:43:30.728Z,25
2022-12-04T08:44:33.365Z,24
2022-12-04T08:45:36.047Z,23
2022-12-04T08:46:39.055Z,23
2022-12-04T08:47:41.947Z,23
2022-12-04T08:48:44.616Z,23
2022-12-04T08:49:47.288Z,21
2022-12-04T08:50:49.927Z,22
2022-12-04T08:51:52.548Z,23
2022-12-04T08:52:55.210Z,23
2022-12-04T08:53:57.813Z,23
2022-12-04T08:55:01.027Z,22
2022-12-04T08:56:03.638Z,24
2022-12-04T08:57:06.296Z,26
2022-12-04T08:58:08.934Z,26
2022-12-04T08:59:11.577Z,24
2022-12-04T09:00:14.469Z,24
2022-12-04T09:01:17.179Z,24
2022-12-04T09:02:19.931Z,24
2022-12-04T09:03:30.818Z,24
2022-12-04T09:04:33.533Z,23
2022-12-04T09:05:36.316Z,23
2022-12-04T09:06:38.866Z,23
2022-12-04T09:07:41.668Z,26
2022-12-04T09:08:44.476Z,26
2022-12-04T09:09:48.718Z,26
2022-12-04T09:10:51.241Z,25
2022-12-04T09:11:53.901Z,24
2022-12-04T09:12:56.537Z,25
2022-12-04T09:13:59.223Z,26
2022-12-04T09:15:02.879Z,25
2022-12-04T09:16:05.824Z,25
2022-12-04T09:17:08.729Z,26
2022-12-04T09:18:11.385Z,26
2022-12-04T09:19:15.520Z,25
2022-12-04T09:20:18.255Z,24
2022-12-04T09:21:21.001Z,22
2022-12-04T09:22:23.879Z,26
2022-12-04T09:23:26.464Z,22
2022-12-04T09:24:29.112Z,23
2022-12-04T09:25:31.771Z,23
2022-12-04T09:26:34.529Z,22
2022-12-04T09:27:37.178Z,23
2022-12-04T09:28:39.802Z,23
2022-12-04T09:29:42.507Z,23
2022-12-04T09:30:45.353Z,24
2022-12-04T09:31:48.092Z,26
2022-12-04T09:32:50.671Z,24
2022-12-04T09:33:53.315Z,26
2022-12-04T09:34:55.951Z,26
2022-12-04T09:35:58.820Z,26
2022-12-04T09:37:02.086Z,26
2022-12-04T09:38:04.809Z,25
2022-12-04T09:39:07.404Z,26
2022-12-04T09:40:09.991Z,26
2022-12-04T09:41:12.632Z,25
2022-12-04T09:42:15.275Z,27
2022-12-04T09:43:17.938Z,27
2022-12-04T09:44:20.536Z,26
2022-12-04T09:45:23.176Z,25
2022-12-04T09:46:25.836Z,26
2022-12-04T09:47:28.667Z,23
2022-12-04T09:48:31.304Z,26
2022-12-04T09:49:33.921Z,26
2022-12-04T09:50:36.575Z,26
2022-12-04T09:51:39.212Z,28
2022-12-04T09:52:41.932Z,27
2022-12-04T09:53:44.539Z,26
2022-12-04T09:54:47.156Z,27
2022-12-04T09:55:50.009Z,27
2022-12-04T09:56:52.626Z,26
2022-12-04T09:58:02.249Z,27
2022-12-04T09:59:04.893Z,25
2022-12-04T10:00:07.497Z,26
2022-12-04T10:01:10.108Z,25
2022-12-04T10:02:13.105Z,26
2022-12-04T10:03:16.543Z,26
2022-12-04T10:04:19.921Z,26
2022-12-04T10:05:22.992Z,25
2022-12-04T10:06:25.657Z,25
2022-12-04T10:07:28.509Z,26
2022-12-04T10:08:36.112Z,24
2022-12-04T10:09:38.670Z,24
2022-12-04T10:10:41.310Z,24
2022-12-04T10:11:43.932Z,23
2022-12-04T10:12:46.535Z,26
2022-12-04T10:13:49.187Z,26
2022-12-04T10:14:51.819Z,26
2022-12-04T10:15:54.611Z,26
2022-12-04T10:16:57.474Z,27
2022-12-04T10:18:00.099Z,25
2022-12-04T10:19:02.745Z,25
2022-12-04T10:20:05.504Z,25
2022-12-04T10:21:08.090Z,23
2022-12-04T10:22:10.782Z,24
2022-12-04T10:23:14.391Z,24
2022-12-04T10:24:17.061Z,24
2022-12-04T10:25:19.709Z,24
2022-12-04T10:26:22.348Z,23
2022-12-04T10:27:25.529Z,25
2022-12-04T10:28:28.246Z,24
2022-12-04T10:29:30.867Z,23
2022-12-04T10:30:33.497Z,24
2022-12-04T10:31:36.296Z,24
2022-12-04T10:32:39.064Z,23
2022-12-04T10:33:41.699Z,23
2022-12-04T10:34:46.180Z,23
2022-12-04T10:35:48.647Z,23
2022-12-04T10:36:51.295Z,24
2022-12-04T10:37:53.940Z,24
2022-12-04T10:38:56.622Z,24
2022-12-04T10:39:59.485Z,25
2022-12-04T10:41:02.143Z,25
2022-12-04T10:42:04.741Z,25
2022-12-04T10:43:07.382Z,24
2022-12-04T10:44:10.019Z,24
2022-12-04T10:45:12.822Z,25
2022-12-04T10:46:15.591Z,24
2022-12-04T10:47:18.655Z,24
2022-12-04T10:48:21.428Z,24
2022-12-04T10:49:24.269Z,23
2022-12-04T10:50:27.162Z,25
2022-12-04T10:51:30.388Z,25
2022-12-04T10:52:32.979Z,24
2022-12-04T10:53:35.638Z,24
2022-12-04T10:54:38.308Z,25
2022-12-04T10:55:42.521Z,26
2022-12-04T10:56:45.003Z,26
2022-12-04T10:57:47.611Z,26
2022-12-04T10:58:50.171Z,26
2022-12-04T10:59:53.363Z,25
2022-12-04T11:00:56.706Z,24
2022-12-04T11:02:06.851Z,24
2022-12-04T11:03:09.924Z,26
2022-12-04T11:04:12.673Z,24
2022-12-04T11:05:15.251Z,24
2022-12-04T11:06:17.874Z,25
2022-12-04T11:07:20.547Z,25
2022-12-04T11:08:23.390Z,25
2022-12-04T11:09:26.569Z,26
2022-12-04T11:10:29.203Z,26
2022-12-04T11:11:31.841Z,26
2022-12-04T11:12:34.597Z,25
2022-12-04T11:13:37.487Z,26
2022-12-04T11:14:47.087Z,26
2022-12-04T11:15:49.835Z,26
2022-12-04T11:16:52.666Z,26
2022-12-04T11:17:55.342Z,26
2022-12-04T11:18:58.198Z,27
2022-12-04T11:20:00.789Z,29
2022-12-04T11:21:07.321Z,29
2022-12-04T11:22:09.707Z,30
2022-12-04T11:23:12.380Z,28
2022-12-04T11:24:14.999Z,29
2022-12-04T11:25:17.675Z,29
2022-12-04T11:26:20.916Z,29
2022-12-04T11:27:23.494Z,28
2022-12-04T11:28:41.441Z,27
2022-12-04T11:29:44.761Z,28
2022-12-04T11:30:47.391Z,28
2022-12-04T11:31:50.155Z,29
2022-12-04T11:32:52.943Z,29
2022-12-04T11:33:55.540Z,30
2022-12-04T11:34:58.178Z,33
2022-12-04T11:36:00.774Z,35
2022-12-04T11:37:03.381Z,33
2022-12-04T11:38:06.034Z,30
2022-12-04T11:39:08.651Z,29
2022-12-04T11:40:11.415Z,28
2022-12-04T11:41:14.093Z,28
2022-12-04T11:42:17.029Z,29
2022-12-04T11:43:19.621Z,27
2022-12-04T11:44:22.283Z,27
2022-12-04T11:45:24.928Z,29
2022-12-04T11:46:27.644Z,29
2022-12-04T11:47:30.514Z,29
2022-12-04T11:48:33.182Z,28
2022-12-04T11:49:43.774Z,29
2022-12-04T11:50:46.307Z,28
2022-12-04T11:51:48.901Z,27
2022-12-04T11:52:51.488Z,29
2022-12-04T11:53:54.080Z,27
2022-12-04T11:54:56.699Z,27
2022-12-04T11:55:59.371Z,27
2022-12-04T11:57:05.513Z,29
2022-12-04T11:58:08.741Z,29
2022-12-04T11:59:22.852Z,28
2022-12-04T12:00:25.060Z,28
2022-12-04T12:01:27.908Z,29
2022-12-04T12:02:31.264Z,28
2022-12-04T12:03:34.408Z,28
2022-12-04T12:04:37.247Z,28
2022-12-04T12:05:39.848Z,28
2022-12-04T12:06:42.504Z,29
2022-12-04T12:07:45.223Z,28
2022-12-04T12:08:47.949Z,27
2022-12-04T12:09:50.664Z,26
2022-12-04T12:10:53.288Z,25
2022-12-04T12:12:04.250Z,25
2022-12-04T12:13:08.463Z,25
2022-12-04T12:14:11.085Z,26
2022-12-04T12:15:14.287Z,26
2022-12-04T12:16:17.136Z,26
2022-12-04T12:17:21.060Z,26
2022-12-04T12:18:23.604Z,27
2022-12-04T12:19:26.199Z,27
2022-12-04T12:20:28.843Z,27
2022-12-04T12:21:31.528Z,29
2022-12-04T12:22:34.139Z,29
2022-12-04T12:23:37.061Z,29
2022-12-04T12:24:40.346Z,29
2022-12-04T12:25:52.046Z,29
2022-12-04T12:26:55.572Z,27
2022-12-04T12:28:01.668Z,29
2022-12-04T12:29:04.047Z,29
2022-12-04T12:30:16.721Z,27
2022-12-04T12:31:19.077Z,26
2022-12-04T12:32:21.951Z,26
2022-12-04T12:33:24.760Z,27
2022-12-04T12:34:27.417Z,27
2022-12-04T12:35:40.209Z,26
2022-12-04T12:36:44.161Z,25
2022-12-04T12:37:46.548Z,26
2022-12-04T12:38:49.250Z,26
2022-12-04T12:39:55.030Z,26
2022-12-04T12:40:58.588Z,27
2022-12-04T12:42:01.157Z,27
2022-12-04T12:43:03.786Z,28
2022-12-04T12:44:06.532Z,26
2022-12-04T12:45:09.187Z,26
2022-12-04T12:46:12.234Z,25
2022-12-04T12:47:15.003Z,26
2022-12-04T12:48:17.671Z,25
2022-12-04T12:49:20.579Z,26
2022-12-04T12:50:24.768Z,24
2022-12-04T12:51:32.251Z,26
2022-12-04T12:52:34.576Z,26
2022-12-04T12:53:37.152Z,26
2022-12-04T12:54:41.015Z,25
2022-12-04T12:55:43.612Z,26
2022-12-04T12:56:50.113Z,26
2022-12-04T12:57:57.926Z,26
2022-12-04T12:59:00.255Z,26
2022-12-04T13:00:03.443Z,26
2022-12-04T13:01:06.460Z,26
2022-12-04T13:02:09.351Z,26
2022-12-04T13:03:12.130Z,26
2022-12-04T13:04:14.744Z,26
2022-12-04T13:05:17.324Z,26
2022-12-04T13:06:23.467Z,29
2022-12-04T13:07:25.900Z,26
2022-12-04T13:08:28.419Z,26
2022-12-04T13:09:31.038Z,27
2022-12-04T13:10:33.723Z,26
2022-12-04T13:11:36.352Z,26
2022-12-04T13:12:38.954Z,26
2022-12-04T13:13:41.658Z,25
2022-12-04T13:14:49.368Z,27
2022-12-04T13:15:51.725Z,32
2022-12-04T13:16:54.604Z,32
2022-12-04T13:17:57.487Z,32
2022-12-04T13:19:00.195Z,31
2022-12-04T13:20:10.296Z,30
2022-12-04T13:21:13.360Z,28
2022-12-04T13:22:16.020Z,29
2022-12-04T13:23:18.743Z,29
2022-12-04T13:24:21.791Z,30
2022-12-04T13:25:24.426Z,31
2022-12-04T13:26:26.993Z,31
2022-12-04T13:27:29.593Z,30
2022-12-04T13:28:32.178Z,29
2022-12-04T13:29:34.793Z,27
2022-12-04T13:30:37.400Z,27
2022-12-04T13:31:40.288Z,29
2022-12-04T13:32:43.160Z,28
2022-12-04T13:33:45.802Z,38
2022-12-04T13:34:48.470Z,50
2022-12-04T13:35:51.080Z,47
2022-12-04T13:36:53.675Z,43
2022-12-04T13:38:17.382Z,33
2022-12-04T13:39:18.591Z,30
2022-12-04T13:40:21.098Z,29
2022-12-04T13:41:23.752Z,29
2022-12-04T13:42:26.334Z,28
2022-12-04T13:43:31.719Z,29
2022-12-04T13:44:34.340Z,29
2022-12-04T13:45:37.270Z,27
2022-12-04T13:46:40.123Z,26
2022-12-04T13:47:42.827Z,26
2022-12-04T13:48:45.525Z,27
2022-12-04T13:49:48.971Z,28
2022-12-04T13:50:53.674Z,29
2022-12-04T13:51:56.252Z,28
2022-12-04T13:52:58.903Z,28
2022-12-04T13:54:01.585Z,28
2022-12-04T13:55:04.130Z,28
2022-12-04T13:56:15.621Z,27
2022-12-04T13:57:17.854Z,26
2022-12-04T13:58:20.859Z,26
2022-12-04T13:59:23.463Z,28
2022-12-04T14:00:26.067Z,27
2022-12-04T14:01:28.846Z,26
2022-12-04T14:02:35.836Z,28
2022-12-04T14:03:38.636Z,27
2022-12-04T14:04:41.244Z,27
2022-12-04T14:05:43.874Z,29
2022-12-04T14:06:46.558Z,27
2022-12-04T14:07:49.385Z,27
2022-12-04T14:08:52.089Z,27
2022-12-04T14:09:54.722Z,26
2022-12-04T14:10:57.347Z,26
2022-12-04T14:11:59.900Z,27
2022-12-04T14:13:02.615Z,27
2022-12-04T14:14:08.430Z,27
2022-12-04T14:15:11.814Z,26
2022-12-04T14:16:14.462Z,29
2022-12-04T14:17:17.354Z,27
2022-12-04T14:18:20.082Z,27
2022-12-04T14:19:22.719Z,29
2022-12-04T14:20:25.346Z,30
2022-12-04T14:21:28.011Z,30
2022-12-04T14:22:30.694Z,29
2022-12-04T14:23:33.363Z,29
2022-12-04T14:24:35.981Z,29
2022-12-04T14:25:38.613Z,27
2022-12-04T14:27:10.500Z,26
2022-12-04T14:28:03.072Z,26
2022-12-04T14:29:05.890Z,27
2022-12-04T14:30:08.485Z,29
2022-12-04T14:31:11.241Z,29
2022-12-04T14:32:15.112Z,29
2022-12-04T14:33:17.706Z,29
2022-12-04T14:34:20.582Z,34
2022-12-04T14:35:23.250Z,32
2022-12-04T14:36:25.879Z,30
2022-12-04T14:37:30.122Z,29
2022-12-04T14:38:32.712Z,27
2022-12-04T14:39:35.300Z,29
2022-12-04T14:40:37.919Z,32
2022-12-04T14:41:40.586Z,31
2022-12-04T14:42:43.248Z,29
2022-12-04T14:43:45.908Z,27
2022-12-04T14:44:48.538Z,26
2022-12-04T14:45:51.362Z,30
2022-12-04T14:46:54.128Z,32
2022-12-04T14:47:58.268Z,29
2022-12-04T14:49:00.804Z,27
2022-12-04T14:50:03.474Z,26
2022-12-04T14:51:06.338Z,26
2022-12-04T14:52:09.021Z,26
2022-12-04T14:53:11.569Z,26
2022-12-04T14:54:14.227Z,25
2022-12-04T14:55:16.841Z,27
2022-12-04T14:56:19.454Z,28
2022-12-04T14:57:22.122Z,29
2022-12-04T14:58:24.709Z,30
2022-12-04T14:59:27.318Z,31
2022-12-04T15:00:29.927Z,31
2022-12-04T15:01:32.580Z,29
2022-12-04T15:02:35.247Z,27
2022-12-04T15:03:37.998Z,29
2022-12-04T15:04:40.905Z,26
2022-12-04T15:05:43.761Z,27
2022-12-04T15:06:46.372Z,27